Time;durP1;ratioP1;P1;durP2;ratioP2;P2;SDS_P1;SDS_P2;PMS_P1;PMS_P2;Temp;Humidity;BMP_temperature;BMP_pressure;BME280_temperature;BME280_humidity;BME280_pressure;Samples;Min_cycle;Max_cycle;Signal;HPM_P1;HPM_P2
2021/11/21 00:00:38;;;;;;;38.75;17.50;;;8.40;81.70;;;;;;5146941;27;20022;-70
2021/11/21 00:03:09;;;;;;;40.88;18.90;;;8.40;81.80;;;;;;5154412;27;20365;-70
2021/11/21 00:05:40;;;;;;;37.95;17.52;;;8.40;81.80;;;;;;5169400;27;20782;-70
2021/11/21 00:08:14;;;;;;;35.78;17.33;;;8.30;81.90;;;;;;5160457;27;20054;-70
2021/11/21 00:10:42;;;;;;;40.70;17.92;;;8.40;82.00;;;;;;5158133;27;20571;-70
2021/11/21 00:13:11;;;;;;;39.53;18.40;;;8.30;82.00;;;;;;5157530;27;20180;-70
2021/11/21 00:15:43;;;;;;;40.95;18.45;;;8.40;82.20;;;;;;5158115;27;20034;-70
2021/11/21 00:18:12;;;;;;;40.58;18.23;;;8.30;82.20;;;;;;5155058;27;20105;-70
2021/11/21 00:20:46;;;;;;;41.45;18.23;;;8.40;82.40;;;;;;5151424;27;20027;-70
2021/11/21 00:23:15;;;;;;;47.85;19.42;;;8.30;82.40;;;;;;5167927;27;20706;-70
2021/11/21 00:25:44;;;;;;;41.30;18.42;;;8.30;82.50;;;;;;5157012;27;20030;-70
2021/11/21 00:28:13;;;;;;;50.17;18.80;;;8.40;82.50;;;;;;5155274;27;20066;-70
2021/11/21 00:30:44;;;;;;;40.60;18.15;;;8.30;82.60;;;;;;5155485;27;20126;-70
2021/11/21 00:33:13;;;;;;;43.25;19.27;;;8.30;82.60;;;;;;5154871;27;20021;-70
2021/11/21 00:35:42;;;;;;;46.22;19.27;;;8.30;82.70;;;;;;5151210;27;20087;-70
2021/11/21 00:38:08;;;;;;;44.20;19.50;;;8.30;82.90;;;;;;5167092;27;20057;-70
2021/11/21 00:40:35;;;;;;;44.47;19.35;;;8.30;83.00;;;;;;5155525;27;20030;-70
2021/11/21 00:43:01;;;;;;;44.33;19.25;;;8.30;83.10;;;;;;5155386;27;20031;-70
2021/11/21 00:45:29;;;;;;;46.10;19.88;;;8.30;83.20;;;;;;5155469;27;20102;-70
2021/11/21 00:47:56;;;;;;;50.45;21.27;;;8.30;83.30;;;;;;5152416;27;20383;-70
2021/11/21 00:50:27;;;;;;;45.92;19.77;;;8.30;83.40;;;;;;5158394;27;20442;-70
2021/11/21 00:53:05;;;;;;;46.63;19.85;;;8.30;83.50;;;;;;5158067;27;20565;-70
2021/11/21 00:55:50;;;;;;;46.08;20.00;;;8.30;83.60;;;;;;5161172;27;20053;-70
2021/11/21 00:58:16;;;;;;;49.30;20.65;;;8.30;83.60;;;;;;5154682;27;20023;-70
2021/11/21 01:00:45;;;;;;;53.58;20.92;;;8.30;83.70;;;;;;5154517;27;20542;-70
2021/11/21 01:03:13;;;;;;;49.90;21.38;;;8.30;83.80;;;;;;5162133;27;20426;-70
2021/11/21 01:05:41;;;;;;;49.20;21.42;;;8.40;83.90;;;;;;5150320;27;20029;-70
2021/11/21 01:08:07;;;;;;;50.33;20.15;;;8.30;83.90;;;;;;5158339;27;20027;-70
2021/11/21 01:10:33;;;;;;;59.20;21.80;;;8.30;83.90;;;;;;5164240;27;20082;-70
2021/11/21 01:12:59;;;;;;;63.25;21.67;;;8.40;84.10;;;;;;5154986;27;20040;-70
2021/11/21 01:15:25;;;;;;;59.15;21.40;;;8.30;84.20;;;;;;5151317;27;20105;-70
2021/11/21 01:17:53;;;;;;;59.58;22.08;;;8.30;84.20;;;;;;5150336;27;20026;-70
2021/11/21 01:20:21;;;;;;;59.80;22.25;;;8.30;84.30;;;;;;5158768;27;20042;-70
2021/11/21 01:22:48;;;;;;;60.08;21.63;;;8.30;84.30;;;;;;5157745;27;20023;-70
2021/11/21 01:25:14;;;;;;;62.33;22.40;;;8.40;84.40;;;;;;5157925;27;20042;-70
2021/11/21 01:27:40;;;;;;;62.78;22.25;;;8.40;84.50;;;;;;5155324;27;20388;-70
2021/11/21 01:30:10;;;;;;;56.95;21.65;;;8.40;84.40;;;;;;5149365;27;20507;-70
2021/11/21 01:32:36;;;;;;;57.00;22.10;;;8.30;84.50;;;;;;5150720;27;20031;-70
2021/11/21 01:35:03;;;;;;;58.10;21.80;;;8.40;84.60;;;;;;5155688;27;20033;-70
2021/11/21 01:37:29;;;;;;;65.63;22.02;;;8.40;84.70;;;;;;5151912;27;20508;-70
2021/11/21 01:39:54;;;;;;;60.13;22.58;;;8.40;84.80;;;;;;5147923;27;20023;-70
2021/11/21 01:42:22;;;;;;;60.97;22.30;;;8.40;84.90;;;;;;5153178;27;20105;-70
2021/11/21 01:44:48;;;;;;;63.72;22.23;;;8.40;85.00;;;;;;5150391;27;20171;-70
2021/11/21 01:47:14;;;;;;;63.30;21.80;;;8.40;84.90;;;;;;5144476;27;20093;-70
2021/11/21 01:49:40;;;;;;;64.40;21.63;;;8.30;85.00;;;;;;5162849;27;20099;-70
2021/11/21 01:52:06;;;;;;;56.08;21.63;;;8.40;85.10;;;;;;5153750;27;20026;-70
2021/11/21 01:54:33;;;;;;;61.33;21.77;;;8.40;85.20;;;;;;5151861;27;20034;-70
2021/11/21 01:57:00;;;;;;;66.82;22.35;;;8.40;85.20;;;;;;5141670;27;20094;-70
2021/11/21 01:59:26;;;;;;;52.30;20.42;;;8.40;85.20;;;;;;5138925;27;20019;-70
2021/11/21 02:01:52;;;;;;;56.13;21.27;;;8.40;85.20;;;;;;5154856;27;20022;-70
2021/11/21 02:04:18;;;;;;;51.90;20.95;;;8.40;85.20;;;;;;5149918;27;20027;-69
2021/11/21 02:06:44;;;;;;;53.15;20.77;;;8.40;85.20;;;;;;5151217;27;20023;-69
2021/11/21 02:09:09;;;;;;;57.65;21.27;;;8.40;85.20;;;;;;5147837;27;20022;-70
2021/11/21 02:11:35;;;;;;;52.55;20.65;;;8.30;85.20;;;;;;5147473;27;20424;-70
2021/11/21 02:14:01;;;;;;;50.22;20.48;;;8.40;85.30;;;;;;5151760;27;20059;-70
2021/11/21 02:16:30;;;;;;;51.78;19.60;;;8.40;85.30;;;;;;5151448;27;20114;-70
2021/11/21 02:18:57;;;;;;;52.45;20.17;;;8.40;85.30;;;;;;5151840;27;20535;-70
2021/11/21 02:21:23;;;;;;;53.95;20.58;;;8.40;85.40;;;;;;5148452;27;20066;-70
2021/11/21 02:23:50;;;;;;;56.80;20.13;;;8.40;85.40;;;;;;5149020;27;20102;-70
2021/11/21 02:26:17;;;;;;;47.50;19.60;;;8.40;85.40;;;;;;5143225;27;20031;-70
2021/11/21 02:28:47;;;;;;;53.60;19.92;;;8.40;85.40;;;;;;5141554;27;20016;-70
2021/11/21 02:31:15;;;;;;;51.80;21.20;;;8.40;85.50;;;;;;5148728;27;20500;-70
2021/11/21 02:33:41;;;;;;;56.95;20.95;;;8.40;85.50;;;;;;5144919;27;20052;-70
2021/11/21 02:36:08;;;;;;;51.30;18.95;;;8.40;85.50;;;;;;5148277;27;20061;-70
2021/11/21 02:38:36;;;;;;;55.35;19.88;;;8.40;85.70;;;;;;5145546;27;20458;-69
2021/11/21 02:41:07;;;;;;;54.05;21.00;;;8.40;85.60;;;;;;5154046;27;20022;-69
2021/11/21 02:43:33;;;;;;;;;;;8.40;85.60;;;;;;5153764;27;20515;-70
2021/11/21 02:45:58;;;;;;;59.17;20.45;;;8.40;85.60;;;;;;5150680;27;19963;-70
2021/11/21 02:48:27;;;;;;;57.22;21.63;;;8.40;85.60;;;;;;5145863;27;20022;-70
2021/11/21 02:50:54;;;;;;;74.70;23.02;;;8.40;85.70;;;;;;5136209;27;20035;-70
2021/11/21 02:53:25;;;;;;;66.05;21.80;;;8.40;85.70;;;;;;5146053;27;20378;-70
2021/11/21 02:55:52;;;;;;;66.50;22.73;;;8.40;85.70;;;;;;5137852;27;20038;-69
2021/11/21 02:58:18;;;;;;;73.70;22.80;;;8.40;85.70;;;;;;5142406;27;20034;-69
2021/11/21 03:00:44;;;;;;;71.00;23.02;;;8.30;85.80;;;;;;5151335;27;20557;-69
2021/11/21 03:03:13;;;;;;;66.03;21.92;;;8.30;85.90;;;;;;5136698;27;20146;-70
2021/11/21 03:05:39;;;;;;;64.30;22.83;;;8.30;86.10;;;;;;5148478;27;20034;-70
2021/11/21 03:08:05;;;;;;;70.72;23.83;;;8.30;86.20;;;;;;5151350;27;20023;-70
2021/11/21 03:10:32;;;;;;;71.70;23.88;;;8.30;86.20;;;;;;5152743;27;20046;-70
2021/11/21 03:13:01;;;;;;;71.93;23.92;;;8.30;86.30;;;;;;5147238;27;20030;-70
2021/11/21 03:15:28;;;;;;;73.32;23.45;;;8.30;86.40;;;;;;5136980;27;20034;-69
2021/11/21 03:17:54;;;;;;;64.45;23.33;;;8.30;86.50;;;;;;5141620;27;20038;-70
2021/11/21 03:20:27;;;;;;;63.92;22.17;;;8.40;86.40;;;;;;5153201;27;20080;-70
2021/11/21 03:22:54;;;;;;;79.30;24.05;;;8.40;86.50;;;;;;5152905;27;20439;-69
2021/11/21 03:25:20;;;;;;;65.95;24.00;;;8.40;86.50;;;;;;5151889;27;20023;-69
2021/11/21 03:27:46;;;;;;;71.28;23.58;;;8.40;86.50;;;;;;5152066;27;20083;-69
2021/11/21 03:30:15;;;;;;;72.18;24.15;;;8.40;87.50;;;;;;5141915;27;20105;-70
2021/11/21 03:32:42;;;;;;;70.97;23.73;;;8.40;86.50;;;;;;5142539;27;20504;-70
2021/11/21 03:35:08;;;;;;;72.57;24.20;;;8.40;86.50;;;;;;5156031;27;20489;-70
2021/11/21 03:37:35;;;;;;;75.97;24.95;;;8.40;86.50;;;;;;5162966;27;20022;-70
2021/11/21 03:40:02;;;;;;;78.45;25.33;;;8.40;86.60;;;;;;5165432;27;20500;-70
2021/11/21 03:42:28;;;;;;;74.10;24.98;;;8.40;86.60;;;;;;5161737;27;20025;-69
2021/11/21 03:44:54;;;;;;;75.95;25.83;;;8.40;86.60;;;;;;5154935;27;20034;-69
2021/11/21 03:47:20;;;;;;;79.43;24.75;;;8.40;86.60;;;;;;5154260;27;20026;-70
2021/11/21 03:49:46;;;;;;;77.82;26.15;;;8.40;86.60;;;;;;5166410;27;20082;-70
2021/11/21 03:52:12;;;;;;;77.32;25.50;;;8.40;86.50;;;;;;5154164;27;20026;-69
2021/11/21 03:54:38;;;;;;;71.80;24.08;;;8.50;86.50;;;;;;5155673;27;20033;-70
2021/11/21 03:57:04;;;;;;;65.10;23.50;;;8.40;86.50;;;;;;5139740;27;20050;-70
2021/11/21 03:59:30;;;;;;;78.28;24.63;;;8.40;86.40;;;;;;5154190;27;20019;-70
2021/11/21 04:01:58;;;;;;;80.43;24.85;;;8.50;86.50;;;;;;5159703;27;20152;-70
2021/11/21 04:04:27;;;;;;;74.03;25.05;;;8.50;86.50;;;;;;5152331;27;20027;-70
2021/11/21 04:06:54;;;;;;;84.22;24.38;;;8.50;86.60;;;;;;5152181;27;20030;-70
2021/11/21 04:09:20;;;;;;;89.28;24.90;;;8.40;86.60;;;;;;5144725;27;20404;-70
2021/11/21 04:11:45;;;;;;;76.57;23.98;;;8.50;86.70;;;;;;5146449;27;20030;-70
2021/11/21 04:14:11;;;;;;;79.75;26.00;;;8.50;86.80;;;;;;5151896;27;20068;-70
2021/11/21 04:16:38;;;;;;;74.28;23.95;;;8.50;86.80;;;;;;5148610;27;20034;-69
2021/11/21 04:19:04;;;;;;;75.00;24.20;;;8.50;86.90;;;;;;5153992;27;20034;-70
2021/11/21 04:21:31;;;;;;;61.53;23.17;;;8.50;86.90;;;;;;5144889;27;20080;-70
2021/11/21 04:23:57;;;;;;;84.38;24.95;;;8.40;86.90;;;;;;5138006;27;20412;-70
2021/11/21 04:26:23;;;;;;;83.13;24.80;;;8.40;86.80;;;;;;5145301;27;20448;-70
2021/11/21 04:28:49;;;;;;;73.00;24.35;;;8.40;86.90;;;;;;5151722;27;20071;-70
2021/11/21 04:31:15;;;;;;;71.82;24.30;;;8.50;87.00;;;;;;5155271;27;20037;-70
2021/11/21 04:33:41;;;;;;;73.68;23.98;;;8.50;87.00;;;;;;5146113;27;20038;-69
2021/11/21 04:36:07;;;;;;;70.97;24.23;;;8.50;87.00;;;;;;5150811;27;20026;-70
2021/11/21 04:38:33;;;;;;;71.60;24.20;;;8.50;87.00;;;;;;5163441;27;20018;-70
2021/11/21 04:40:58;;;;;;;71.20;23.83;;;8.50;87.10;;;;;;5155714;27;20030;-70
2021/11/21 04:43:24;;;;;;;76.22;24.20;;;8.50;87.10;;;;;;5152416;27;20080;-70
2021/11/21 04:45:50;;;;;;;77.25;24.05;;;8.50;87.20;;;;;;5153933;27;20030;-70
2021/11/21 04:48:16;;;;;;;79.15;23.98;;;8.50;87.30;;;;;;5147693;27;20050;-70
2021/11/21 04:50:43;;;;;;;73.05;24.52;;;8.40;87.60;;;;;;5158267;27;20035;-70
2021/11/21 04:53:08;;;;;;;74.38;23.35;;;8.40;87.70;;;;;;5138229;27;20037;-70
2021/11/21 04:55:34;;;;;;;80.47;25.75;;;8.40;87.70;;;;;;5152677;27;20015;-70
2021/11/21 04:58:01;;;;;;;93.00;25.88;;;8.40;87.80;;;;;;5148843;27;20033;-69
2021/11/21 05:00:28;;;;;;;91.57;26.95;;;8.40;87.90;;;;;;5150318;27;20455;-70
2021/11/21 05:02:53;;;;;;;92.95;27.25;;;8.40;88.10;;;;;;5146441;27;20485;-70
2021/11/21 05:05:22;;;;;;;90.63;26.15;;;8.40;88.10;;;;;;5155920;27;20037;-70
2021/11/21 05:07:49;;;;;;;90.88;26.58;;;8.50;88.20;;;;;;5166123;27;20037;-70
2021/11/21 05:10:15;;;;;;;93.80;26.70;;;8.50;88.20;;;;;;5157700;27;20110;-70
2021/11/21 05:12:42;;;;;;;91.43;26.80;;;8.40;88.20;;;;;;5154192;27;20050;-70
2021/11/21 05:15:10;;;;;;;97.25;26.90;;;8.50;88.30;;;;;;5148287;27;20030;-69
2021/11/21 05:17:36;;;;;;;96.45;27.33;;;8.50;88.30;;;;;;5152512;27;20054;-69
2021/11/21 05:20:03;;;;;;;112.78;28.75;;;8.50;88.30;;;;;;5154824;27;20031;-70
2021/11/21 05:22:29;;;;;;;86.30;24.98;;;8.50;88.40;;;;;;5151794;27;20426;-70
2021/11/21 05:24:55;;;;;;;98.07;26.38;;;8.50;88.50;;;;;;5155024;27;20030;-70
2021/11/21 05:27:23;;;;;;;81.93;25.20;;;8.50;88.50;;;;;;5144293;27;20014;-70
2021/11/21 05:29:52;;;;;;;88.75;26.10;;;8.50;88.60;;;;;;5150283;27;20027;-70
2021/11/21 05:32:18;;;;;;;100.95;25.58;;;8.50;88.60;;;;;;5155140;27;20114;-70
2021/11/21 05:34:44;;;;;;;80.85;24.25;;;8.50;88.70;;;;;;5139743;27;20015;-70
2021/11/21 05:37:10;;;;;;;73.43;23.40;;;8.50;88.70;;;;;;5151330;27;20037;-70
2021/11/21 05:39:36;;;;;;;79.13;24.40;;;8.50;88.80;;;;;;5153774;27;20023;-70
2021/11/21 05:42:01;;;;;;;66.03;23.35;;;8.50;88.70;;;;;;5147646;27;20049;-70
2021/11/21 05:44:27;;;;;;;64.75;21.60;;;8.50;88.70;;;;;;5146252;27;20417;-70
2021/11/21 05:46:53;;;;;;;56.65;20.27;;;8.50;88.80;;;;;;5147896;27;20054;-70
2021/11/21 05:49:19;;;;;;;65.35;21.80;;;8.50;88.80;;;;;;5153652;27;20023;-70
2021/11/21 05:51:44;;;;;;;57.33;20.80;;;8.50;88.80;;;;;;5150055;27;20035;-70
2021/11/21 05:54:10;;;;;;;53.55;20.85;;;8.50;88.80;;;;;;5154812;27;20063;-70
2021/11/21 05:56:36;;;;;;;51.92;19.17;;;8.50;88.80;;;;;;5139788;27;20034;-69
2021/11/21 05:59:02;;;;;;;52.35;20.00;;;8.50;88.80;;;;;;5144266;27;20023;-70
2021/11/21 06:01:28;;;;;;;56.67;19.88;;;8.60;88.80;;;;;;5147003;27;20152;-70
2021/11/21 06:03:54;;;;;;;61.50;20.73;;;8.60;88.80;;;;;;5144938;27;20101;-70
2021/11/21 06:06:22;;;;;;;49.22;19.02;;;8.50;88.80;;;;;;5150943;27;20022;-70
2021/11/21 06:08:48;;;;;;;53.08;19.95;;;8.50;88.90;;;;;;5149244;27;20097;-70
2021/11/21 06:11:14;;;;;;;54.28;19.27;;;8.50;88.80;;;;;;5130784;27;20088;-70
2021/11/21 06:13:41;;;;;;;45.50;18.95;;;8.50;88.80;;;;;;5149979;27;20018;-70
2021/11/21 06:16:07;;;;;;;56.72;19.52;;;8.50;88.90;;;;;;5152173;27;20025;-70
2021/11/21 06:18:33;;;;;;;49.92;19.55;;;8.60;88.90;;;;;;5152552;27;20030;-69
2021/11/21 06:20:59;;;;;;;53.13;20.23;;;8.60;88.90;;;;;;5138245;27;20030;-70
2021/11/21 06:23:25;;;;;;;49.85;19.60;;;8.60;88.90;;;;;;5151189;27;20023;-69
2021/11/21 06:25:52;;;;;;;46.95;19.67;;;8.60;88.90;;;;;;5150931;27;20023;-69
2021/11/21 06:28:19;;;;;;;47.08;20.35;;;8.60;88.90;;;;;;5146186;27;20134;-70
2021/11/21 06:30:45;;;;;;;51.60;20.02;;;8.60;88.90;;;;;;5152595;27;20036;-70
2021/11/21 06:33:12;;;;;;;48.53;19.90;;;8.60;88.90;;;;;;5155080;27;20029;-70
2021/11/21 06:35:39;;;;;;;47.35;19.30;;;8.60;88.90;;;;;;5149785;27;20027;-70
2021/11/21 06:38:05;;;;;;;48.00;19.35;;;8.60;88.90;;;;;;5143674;27;20443;-70
2021/11/21 06:40:31;;;;;;;40.95;18.20;;;8.60;88.90;;;;;;5150598;27;20031;-70
2021/11/21 06:42:58;;;;;;;42.92;18.65;;;8.60;88.90;;;;;;5127112;27;20558;-69
2021/11/21 06:45:24;;;;;;;44.78;18.40;;;8.60;88.90;;;;;;5149157;27;20133;-70
2021/11/21 06:47:50;;;;;;;43.65;19.35;;;8.60;89.00;;;;;;5140448;27;20448;-69
2021/11/21 06:50:16;;;;;;;49.50;19.73;;;8.60;88.90;;;;;;5144968;27;20023;-69
2021/11/21 06:52:44;;;;;;;46.85;18.55;;;8.60;88.80;;;;;;5146839;27;20026;-68
2021/11/21 06:55:12;;;;;;;43.75;18.40;;;8.60;88.90;;;;;;5121582;27;20072;-68
2021/11/21 06:57:39;;;;;;;42.00;17.90;;;8.60;88.80;;;;;;5145505;27;20071;-69
2021/11/21 07:00:08;;;;;;;43.08;18.33;;;8.60;88.80;;;;;;5145268;27;20117;-70
2021/11/21 07:02:34;;;;;;;42.03;17.92;;;8.60;88.80;;;;;;5130803;27;20038;-68
2021/11/21 07:05:00;;;;;;;38.58;18.08;;;8.60;88.70;;;;;;5128848;27;20076;-68
2021/11/21 07:07:26;;;;;;;45.85;18.40;;;8.60;88.70;;;;;;5122876;27;20031;-69
2021/11/21 07:09:51;;;;;;;40.58;17.55;;;8.60;88.80;;;;;;5136114;27;20517;-67
2021/11/21 07:12:20;;;;;;;46.58;18.77;;;8.50;88.70;;;;;;5114559;27;20043;-67
2021/11/21 07:14:45;;;;;;;49.75;18.90;;;8.50;88.80;;;;;;5147429;27;20026;-67
2021/11/21 07:17:11;;;;;;;37.72;16.98;;;8.50;88.80;;;;;;5117996;28;20031;-67
2021/11/21 07:19:37;;;;;;;39.83;17.63;;;8.50;88.80;;;;;;5150361;27;20031;-68
2021/11/21 07:22:03;;;;;;;44.47;17.90;;;8.50;88.80;;;;;;5152748;27;20031;-68
2021/11/21 07:24:29;;;;;;;38.17;17.15;;;8.50;88.80;;;;;;5148657;27;20025;-68
2021/11/21 07:26:56;;;;;;;40.08;16.42;;;8.50;88.80;;;;;;5149051;27;20016;-68
2021/11/21 07:29:28;;;;;;;38.65;17.40;;;8.50;88.80;;;;;;5153500;27;20027;-69
2021/11/21 07:31:59;;;;;;;44.83;18.20;;;8.50;88.90;;;;;;5150953;27;20117;-69
2021/11/21 07:34:25;;;;;;;47.50;17.83;;;8.60;88.90;;;;;;5146949;27;20027;-70
2021/11/21 07:36:51;;;;;;;43.45;18.13;;;8.60;88.90;;;;;;5145502;27;20038;-71
2021/11/21 07:39:17;;;;;;;48.95;18.42;;;8.60;89.00;;;;;;5148438;27;20589;-70
2021/11/21 07:41:42;;;;;;;105.93;18.00;;;8.60;89.00;;;;;;5148531;27;20094;-70
2021/11/21 07:44:09;;;;;;;94.30;18.30;;;8.60;89.20;;;;;;5154901;27;20030;-70
2021/11/21 07:46:36;;;;;;;117.97;17.13;;;8.60;89.20;;;;;;5150390;27;20021;-69
2021/11/21 07:49:02;;;;;;;129.02;16.00;;;8.60;89.30;;;;;;5143222;27;20039;-69
2021/11/21 07:51:28;;;;;;;107.03;16.00;;;8.60;89.30;;;;;;5153279;27;20038;-68
2021/11/21 07:53:55;;;;;;;103.35;15.82;;;8.50;89.30;;;;;;5148085;27;20055;-68
2021/11/21 07:56:21;;;;;;;115.90;14.95;;;8.60;89.40;;;;;;5143235;27;20058;-68
2021/11/21 07:58:47;;;;;;;146.43;15.98;;;8.60;89.30;;;;;;5146539;27;20019;-68
2021/11/21 08:01:13;;;;;;;228.30;17.95;;;8.60;89.40;;;;;;5131451;27;20030;-68
2021/11/21 08:03:39;;;;;;;131.98;15.65;;;8.60;89.40;;;;;;5125758;27;20390;-68
2021/11/21 08:06:05;;;;;;;161.35;16.83;;;8.70;89.50;;;;;;5119261;27;20031;-68
2021/11/21 08:08:31;;;;;;;226.77;16.60;;;8.70;89.50;;;;;;5113875;27;20034;-68
2021/11/21 08:10:58;;;;;;;127.82;15.10;;;8.70;89.40;;;;;;5117721;27;20047;-68
2021/11/21 08:13:26;;;;;;;155.68;15.18;;;8.70;89.30;;;;;;5137098;27;20079;-67
2021/11/21 08:15:53;;;;;;;248.23;17.08;;;8.70;89.30;;;;;;5141942;27;20657;-68
2021/11/21 08:18:19;;;;;;;192.73;16.45;;;8.70;89.30;;;;;;5132020;27;20023;-68
2021/11/21 08:20:44;;;;;;;189.48;17.35;;;8.80;89.40;;;;;;5138465;27;20019;-68
2021/11/21 08:23:10;;;;;;;116.25;16.50;;;8.80;89.10;;;;;;5150875;27;20114;-69
2021/11/21 08:25:36;;;;;;;205.98;17.48;;;8.90;89.10;;;;;;5139436;27;20023;-69
2021/11/21 08:28:02;;;;;;;180.25;17.08;;;9.00;88.90;;;;;;5144864;27;20455;-68
2021/11/21 08:30:30;;;;;;;127.93;15.20;;;9.10;88.60;;;;;;5149093;27;20052;-68
2021/11/21 08:32:56;;;;;;;139.70;16.45;;;9.20;88.30;;;;;;5153881;27;20027;-68
2021/11/21 08:35:22;;;;;;;131.88;16.23;;;9.30;88.10;;;;;;5171144;27;20037;-68
2021/11/21 08:37:47;;;;;;;187.55;17.08;;;9.40;88.00;;;;;;5127826;27;20023;-68
2021/11/21 08:40:13;;;;;;;169.10;16.15;;;9.30;88.00;;;;;;5142185;27;20171;-69
2021/11/21 08:42:39;;;;;;;125.53;14.25;;;9.30;88.20;;;;;;5148810;27;20064;-69
2021/11/21 08:45:07;;;;;;;118.35;13.10;;;9.30;88.10;;;;;;5137979;27;20038;-69
2021/11/21 08:47:34;;;;;;;97.95;13.77;;;9.30;88.00;;;;;;5146938;27;20031;-68
2021/11/21 08:49:59;;;;;;;159.70;14.43;;;9.40;87.80;;;;;;5154590;27;20058;-68
2021/11/21 08:52:29;;;;;;;122.38;12.90;;;9.50;87.60;;;;;;5146489;27;20054;-68
2021/11/21 08:54:54;;;;;;;136.77;12.35;;;9.70;87.00;;;;;;5144325;27;20026;-68
2021/11/21 08:57:20;;;;;;;130.65;19.05;;;9.90;86.50;;;;;;5146086;27;20027;-68
2021/11/21 08:59:46;;;;;;;107.72;12.80;;;10.00;86.10;;;;;;5153760;27;20474;-68
2021/11/21 09:02:12;;;;;;;103.68;12.93;;;10.10;86.00;;;;;;5156808;27;20031;-68
2021/11/21 09:04:38;;;;;;;91.45;12.98;;;10.10;85.80;;;;;;5150163;27;20098;-68
2021/11/21 09:07:06;;;;;;;108.20;13.80;;;10.10;85.90;;;;;;5152479;27;20030;-68
2021/11/21 09:09:33;;;;;;;94.30;13.02;;;10.10;85.80;;;;;;5147385;27;20039;-68
2021/11/21 09:11:58;;;;;;;135.43;14.43;;;10.20;85.60;;;;;;5130125;27;20663;-67
2021/11/21 09:14:27;;;;;;;128.95;13.88;;;10.30;85.30;;;;;;5153198;27;20489;-67
2021/11/21 09:16:54;;;;;;;112.95;12.80;;;10.40;85.00;;;;;;5137192;27;20403;-68
2021/11/21 09:19:20;;;;;;;107.57;14.23;;;10.50;84.70;;;;;;5148731;27;20076;-69
2021/11/21 09:21:46;;;;;;;138.93;14.80;;;10.70;84.40;;;;;;5152099;27;20417;-68
2021/11/21 09:24:12;;;;;;;97.25;13.40;;;10.90;84.00;;;;;;5143789;27;20038;-68
2021/11/21 09:26:39;;;;;;;74.57;13.35;;;11.20;83.30;;;;;;5148150;27;20033;-68
2021/11/21 09:29:05;;;;;;;57.90;13.35;;;11.40;82.40;;;;;;5153141;27;20576;-68
2021/11/21 09:31:31;;;;;;;85.57;14.73;;;11.40;82.10;;;;;;5150713;27;20525;-69
2021/11/21 09:33:57;;;;;;;104.75;16.40;;;11.30;82.50;;;;;;5124846;27;20390;-68
2021/11/21 09:36:23;;;;;;;47.38;13.95;;;11.30;82.70;;;;;;5145794;27;20485;-68
2021/11/21 09:38:49;;;;;;;50.22;14.07;;;11.30;82.70;;;;;;5134172;27;20097;-68
2021/11/21 09:41:15;;;;;;;21.17;12.15;;;11.20;82.70;;;;;;5145935;27;20077;-68
2021/11/21 09:43:41;;;;;;;25.17;12.35;;;11.40;82.60;;;;;;5141683;27;20019;-68
2021/11/21 09:46:10;;;;;;;24.85;12.70;;;11.50;82.30;;;;;;5144201;27;20023;-69
2021/11/21 09:48:37;;;;;;;24.30;13.05;;;11.50;82.20;;;;;;5105848;27;20402;-68
2021/11/21 09:51:03;;;;;;;24.15;12.20;;;11.50;82.30;;;;;;5153021;27;20038;-68
2021/11/21 09:53:29;;;;;;;21.15;12.40;;;11.40;82.40;;;;;;5137237;27;20019;-68
2021/11/21 09:55:56;;;;;;;25.90;12.88;;;11.40;82.50;;;;;;5155782;27;20366;-69
2021/11/21 09:58:22;;;;;;;23.85;13.23;;;11.40;82.60;;;;;;5145599;27;20071;-68
2021/11/21 10:00:48;;;;;;;22.75;13.05;;;11.30;82.80;;;;;;5152687;27;20027;-68
2021/11/21 10:03:15;;;;;;;24.45;13.30;;;11.20;82.90;;;;;;5139442;27;20031;-69
2021/11/21 10:05:55;;;;;;;22.80;13.25;;;11.20;83.10;;;;;;5150120;27;20122;-68
2021/11/21 10:08:24;;;;;;;19.35;12.63;;;11.10;83.40;;;;;;5142632;27;20103;-68
2021/11/21 10:11:03;;;;;;;22.58;13.27;;;11.10;83.60;;;;;;5148958;27;20050;-69
2021/11/21 10:13:42;;;;;;;22.92;14.05;;;11.10;83.50;;;;;;5148055;27;20022;-68
2021/11/21 10:16:20;;;;;;;20.38;12.55;;;11.10;83.80;;;;;;5154479;27;20038;-69
2021/11/21 10:19:12;;;;;;;22.10;13.63;;;11.00;84.00;;;;;;5151100;27;20123;-70
2021/11/21 10:21:47;;;;;;;23.52;13.38;;;11.00;84.40;;;;;;5150257;27;20026;-69
2021/11/21 10:24:29;;;;;;;21.42;12.68;;;11.00;84.50;;;;;;5160668;27;20041;-68
2021/11/21 10:27:19;;;;;;;23.38;14.35;;;11.00;84.70;;;;;;5137412;27;20023;-68
2021/11/21 10:29:47;;;;;;;21.83;14.32;;;10.90;85.00;;;;;;5143360;27;20023;-68
2021/11/21 10:32:19;;;;;;;22.30;12.57;;;10.80;85.30;;;;;;5142125;27;20041;-68
2021/11/21 10:34:56;;;;;;;21.17;12.90;;;10.80;85.50;;;;;;5163208;27;20659;-68
2021/11/21 10:37:37;;;;;;;22.10;12.30;;;10.80;85.70;;;;;;5153266;27;20046;-68
2021/11/21 10:40:10;;;;;;;20.42;11.65;;;10.80;85.90;;;;;;5147082;27;20065;-68
2021/11/21 10:42:37;;;;;;;20.73;13.00;;;10.70;86.10;;;;;;5138326;27;20034;-68
2021/11/21 10:45:05;;;;;;;23.05;13.88;;;10.80;86.30;;;;;;5138703;27;20045;-69
2021/11/21 10:47:42;;;;;;;21.58;13.52;;;10.80;86.40;;;;;;5139386;27;20033;-68
2021/11/21 10:50:07;;;;;;;22.25;13.15;;;10.80;86.50;;;;;;5135015;27;20122;-69
2021/11/21 10:52:44;;;;;;;16.67;10.73;;;10.90;86.80;;;;;;5146913;27;20106;-68
2021/11/21 10:55:15;;;;;;;13.63;8.65;;;10.90;87.10;;;;;;5146324;27;20027;-69
2021/11/21 10:57:41;;;;;;;11.45;7.22;;;11.00;87.10;;;;;;5145625;27;20018;-68
2021/11/21 11:00:20;;;;;;;10.25;5.75;;;11.10;87.00;;;;;;5135745;27;20034;-69
2021/11/21 11:02:46;;;;;;;9.68;5.45;;;11.10;86.70;;;;;;5138607;27;20023;-68
2021/11/21 11:05:14;;;;;;;10.25;5.85;;;11.10;86.40;;;;;;5144318;27;20103;-68
2021/11/21 11:08:02;;;;;;;9.55;5.68;;;11.20;86.60;;;;;;5149372;27;20027;-65
2021/11/21 11:10:31;;;;;;;8.75;5.70;;;11.20;86.30;;;;;;5161274;27;20121;-68
2021/11/21 11:13:03;;;;;;;10.00;6.13;;;11.20;86.10;;;;;;5135634;27;20023;-72
2021/11/21 11:15:32;;;;;;;10.02;6.25;;;11.20;86.30;;;;;;5152096;27;20022;-69
2021/11/21 11:17:58;;;;;;;8.73;5.20;;;11.10;86.50;;;;;;5146156;27;20029;-67
2021/11/21 11:20:25;;;;;;;8.98;5.05;;;11.10;86.60;;;;;;5137028;27;20023;-71
2021/11/21 11:22:51;;;;;;;9.38;4.43;;;11.00;86.60;;;;;;5149055;27;20053;-71
2021/11/21 11:25:28;;;;;;;10.98;3.92;;;11.00;86.40;;;;;;5148814;27;20034;-72
2021/11/21 11:28:17;;;;;;;11.35;4.30;;;10.90;86.30;;;;;;5128155;27;20031;-70
2021/11/21 11:30:43;;;;;;;7.60;3.53;;;10.90;86.00;;;;;;5124502;27;20030;-69
2021/11/21 11:33:10;;;;;;;7.97;3.50;;;10.90;86.00;;;;;;5121857;27;20041;-70
2021/11/21 11:35:41;;;;;;;8.10;2.92;;;10.90;85.80;;;;;;5125642;27;20037;-68
2021/11/21 11:38:08;;;;;;;;;;;10.90;85.80;;;;;;5143084;27;20035;-68
2021/11/21 11:40:57;;;;;;;10.40;3.00;;;10.90;85.80;;;;;;5145131;27;20377;-69
2021/11/21 11:43:29;;;;;;;11.63;3.53;;;10.90;85.60;;;;;;5142585;27;20035;-70
2021/11/21 11:46:14;;;;;;;8.20;3.20;;;10.80;85.80;;;;;;5145685;27;20031;-72
2021/11/21 11:48:59;;;;;;;8.70;3.33;;;10.80;86.00;;;;;;5145401;27;20034;-71
2021/11/21 11:51:28;;;;;;;7.78;3.15;;;10.70;86.40;;;;;;5141748;27;20038;-69
2021/11/21 11:54:26;;;;;;;8.23;2.78;;;10.70;86.80;;;;;;5132679;27;20532;-69
2021/11/21 11:56:56;;;;;;;9.75;3.70;;;10.70;86.70;;;;;;5139096;27;20023;-68
2021/11/21 11:59:33;;;;;;;8.65;2.67;;;10.70;86.20;;;;;;5145775;27;20022;-67
2021/11/21 12:02:35;;;;;;;9.95;2.55;;;10.70;85.80;;;;;;5141579;27;20054;-67
2021/11/21 12:05:04;;;;;;;6.82;2.95;;;10.60;86.50;;;;;;5152469;27;20485;-67
2021/11/21 12:07:37;;;;;;;6.68;2.13;;;10.60;85.50;;;;;;5156980;27;20026;-68
2021/11/21 12:10:18;;;;;;;6.13;1.80;;;10.50;85.50;;;;;;5146697;27;20035;-69
2021/11/21 12:12:47;;;;;;;;;;;10.60;85.50;;;;;;5142825;27;20031;-67
2021/11/21 12:15:34;;;;;;;7.47;1.52;;;10.50;85.60;;;;;;5150889;27;19922;-68
2021/11/21 12:18:03;;;;;;;5.97;1.52;;;10.50;85.60;;;;;;5145266;27;20031;-70
2021/11/21 12:20:55;;;;;;;7.18;1.40;;;10.40;85.60;;;;;;5146562;27;21289;-68
2021/11/21 12:23:50;;;;;;;4.25;1.40;;;10.40;85.60;;;;;;5143550;27;20568;-69
2021/11/21 12:26:27;;;;;;;6.28;1.33;;;10.40;85.30;;;;;;5111614;27;20027;-70
2021/11/21 12:28:59;;;;;;;5.22;1.40;;;10.40;85.20;;;;;;5150322;27;20018;-66
2021/11/21 12:31:37;;;;;;;5.95;1.60;;;10.40;85.20;;;;;;5147141;27;20035;-67
2021/11/21 12:34:43;;;;;;;7.30;1.52;;;10.40;85.30;;;;;;5147374;27;20042;-71
2021/11/21 12:37:14;;;;;;;8.32;1.60;;;10.40;85.20;;;;;;5029836;28;20109;-69
2021/11/21 12:39:57;;;;;;;7.15;1.50;;;10.40;85.20;;;;;;5029190;28;20980;-67
2021/11/21 12:42:28;;;;;;;7.22;1.40;;;10.50;85.20;;;;;;5018642;28;20051;-68